Time;durP1;ratioP1;P1;durP2;ratioP2;P2;SDS_P1;SDS_P2;PMS_P1;PMS_P2;Temp;Humidity;BMP_temperature;BMP_pressure;BME280_temperature;BME280_humidity;BME280_pressure;Samples;Min_cycle;Max_cycle;Signal;HPM_P1;HPM_P2
2022/05/03 00:02:18;;;;;;;6.40;3.95;;;;;;;11.49;58.82;101971.72;5008728;28;20044;-46
2022/05/03 00:04:50;;;;;;;6.03;4.10;;;;;;;11.39;59.38;101966.97;5055075;28;20403;-48
2022/05/03 00:07:27;;;;;;;8.25;4.22;;;;;;;11.42;59.02;101973.97;5055219;28;20043;-47
2022/05/03 00:10:07;;;;;;;7.50;4.38;;;;;;;11.42;58.96;101969.69;5052375;28;20029;-47
2022/05/03 00:12:35;;;;;;;5.25;3.88;;;;;;;11.35;58.85;101962.53;5054427;28;20025;-47
2022/05/03 00:15:02;;;;;;;7.82;4.10;;;;;;;11.37;58.97;101970.31;5053345;28;20064;-48
2022/05/03 00:17:29;;;;;;;6.88;4.65;;;;;;;11.28;59.23;101969.13;5056200;28;20056;-48
2022/05/03 00:19:55;;;;;;;5.65;4.00;;;;;;;11.21;59.56;101959.34;5050039;28;20033;-47
2022/05/03 00:22:21;;;;;;;5.32;4.72;;;;;;;11.24;59.54;101958.63;5052751;28;20035;-46
2022/05/03 00:24:48;;;;;;;6.25;4.22;;;;;;;11.16;59.81;101960.88;5053870;28;20041;-48
2022/05/03 00:27:14;;;;;;;4.70;4.22;;;;;;;11.09;59.88;101953.66;5054173;28;20036;-50
2022/05/03 00:29:40;;;;;;;4.95;4.22;;;;;;;11.00;59.87;101955.84;5054708;28;20033;-47
2022/05/03 00:32:06;;;;;;;6.45;4.28;;;;;;;11.06;60.21;101952.69;5055733;28;20070;-49
2022/05/03 00:34:33;;;;;;;5.65;4.65;;;;;;;11.03;59.89;101955.97;5055368;28;20043;-47
2022/05/03 00:36:59;;;;;;;7.32;4.57;;;;;;;11.00;60.07;101945.56;5052859;28;20033;-48
2022/05/03 00:39:25;;;;;;;5.38;4.55;;;;;;;10.90;60.55;101946.84;5054025;28;20895;-49
2022/05/03 00:42:01;;;;;;;5.57;4.47;;;;;;;10.93;60.12;101951.25;5054956;28;20063;-48
2022/05/03 00:45:02;;;;;;;5.68;4.30;;;;;;;10.93;60.28;101951.25;5068819;28;20057;-49
2022/05/03 00:47:51;;;;;;;5.03;4.10;;;;;;;10.93;60.29;101943.53;5046173;28;20489;-49
2022/05/03 00:50:29;;;;;;;5.47;4.25;;;;;;;10.92;60.42;101952.06;5055315;28;20041;-49
2022/05/03 00:52:56;;;;;;;8.90;4.45;;;;;;;10.89;60.56;101949.34;5053689;28;20024;-47
2022/05/03 00:55:51;;;;;;;7.32;4.70;;;;;;;10.90;60.22;101949.41;5052441;28;20497;-47
2022/05/03 00:58:55;;;;;;;6.10;4.40;;;;;;;10.92;59.99;101952.06;5056026;28;20882;-49
2022/05/03 01:01:48;;;;;;;4.80;4.20;;;;;;;10.83;60.52;101949.09;5056586;28;20038;-48
2022/05/03 01:04:26;;;;;;;4.75;4.15;;;;;;;10.84;60.37;101951.72;5055444;28;20063;-49
2022/05/03 01:07:13;;;;;;;6.75;4.57;;;;;;;10.74;60.89;101958.16;5058803;28;20029;-49
2022/05/03 01:09:42;;;;;;;6.38;4.35;;;;;;;10.68;60.65;101952.75;5056322;28;20085;-47
2022/05/03 01:12:17;;;;;;;5.38;4.22;;;;;;;10.72;60.39;101951.19;5056462;28;20031;-49
2022/05/03 01:14:55;;;;;;;6.95;4.15;;;;;;;10.60;60.72;101946.34;5057230;28;20148;-46
2022/05/03 01:17:43;;;;;;;6.65;4.13;;;;;;;10.68;60.42;101949.31;5056921;28;20115;-47
2022/05/03 01:20:15;;;;;;;6.22;4.20;;;;;;;10.62;60.18;101951.59;5057375;28;20154;-48
2022/05/03 01:22:44;;;;;;;9.02;4.32;;;;;;;10.58;60.28;101944.53;5054789;28;20033;-50
2022/05/03 01:25:09;;;;;;;7.10;3.97;;;;;;;10.55;60.30;101945.25;5056285;28;20496;-49
2022/05/03 01:27:54;;;;;;;7.00;4.40;;;;;;;10.58;59.83;101945.41;5057915;28;20086;-47
2022/05/03 01:30:20;;;;;;;4.65;3.80;;;;;;;10.51;60.48;101945.97;5058958;28;20052;-48
2022/05/03 01:32:50;;;;;;;4.97;3.70;;;;;;;10.51;60.23;101951.09;5057239;28;20032;-46
2022/05/03 01:35:21;;;;;;;4.78;4.00;;;;;;;10.50;59.94;101946.78;5059471;28;20028;-49
2022/05/03 01:38:06;;;;;;;6.03;4.07;;;;;;;10.54;59.84;101951.22;5073925;28;20032;-49
2022/05/03 01:40:43;;;;;;;6.07;3.90;;;;;;;10.52;60.06;101944.25;5060029;28;20025;-47
2022/05/03 01:43:20;;;;;;;5.80;3.72;;;;;;;10.50;60.37;101935.63;5060128;28;20048;-46
2022/05/03 01:46:06;;;;;;;5.85;3.97;;;;;;;10.54;59.34;101934.91;5063255;28;20388;-47
2022/05/03 01:52:04;;;;;;;6.90;4.18;;;;;;;10.50;59.56;101936.50;5058791;28;20049;-48
2022/05/03 01:54:44;;;;;;;5.03;3.95;;;;;;;10.39;60.19;101940.25;5060593;28;20036;-48
2022/05/03 01:57:38;;;;;;;6.03;4.00;;;;;;;10.45;59.54;101936.28;5059263;28;20476;-47
2022/05/03 02:00:08;;;;;;;6.15;4.18;;;;;;;10.32;60.31;101938.22;5046509;28;20106;-47
2022/05/03 02:02:54;;;;;;;7.15;3.80;;;;;;;10.26;60.28;101935.38;5058135;28;20354;-48
2022/05/03 02:05:41;;;;;;;5.05;4.00;;;;;;;10.30;59.82;101935.56;5059594;28;20035;-50
2022/05/03 02:08:11;;;;;;;4.78;3.63;;;;;;;10.20;60.28;101934.22;5058451;28;20508;-49
2022/05/03 02:10:58;;;;;;;4.75;4.10;;;;;;;10.26;59.86;101935.38;5058437;28;20021;-49
2022/05/03 02:17:02;;;;;;;6.28;3.75;;;;;;;10.15;60.34;101942.53;5053149;28;20507;-51
2022/05/03 02:19:46;;;;;;;6.55;3.72;;;;;;;10.15;60.00;101942.53;5060841;28;20020;-50
2022/05/03 02:22:27;;;;;;;6.78;4.15;;;;;;;9.98;60.48;101938.28;5060524;28;20040;-48
2022/05/03 02:25:17;;;;;;;5.22;3.85;;;;;;;10.05;60.20;101933.50;5058281;28;20024;-46
2022/05/03 02:27:52;;;;;;;6.68;4.30;;;;;;;10.00;60.63;101927.25;5058326;28;20119;-47
2022/05/03 02:30:18;;;;;;;4.75;3.83;;;;;;;9.97;60.11;101929.69;5058567;28;20029;-47
2022/05/03 02:32:56;;;;;;;4.65;3.70;;;;;;;10.04;60.20;101934.31;5057754;28;20150;-47
2022/05/03 02:35:23;;;;;;;5.82;4.10;;;;;;;9.95;60.65;101931.31;5061611;28;20032;-50
2022/05/03 02:37:57;;;;;;;6.60;4.07;;;;;;;9.94;60.27;101932.97;5057755;28;20040;-48
2022/05/03 02:40:27;;;;;;;5.25;4.13;;;;;;;9.89;59.93;101931.03;5057367;28;20043;-50
2022/05/03 02:42:54;;;;;;;6.72;4.20;;;;;;;9.84;60.61;101935.06;5056429;28;20048;-46
2022/05/03 02:45:20;;;;;;;7.10;4.03;;;;;;;9.83;60.52;101935.88;5058266;28;20056;-48
2022/05/03 02:48:16;;;;;;;4.38;3.85;;;;;;;9.90;60.06;101938.81;5058591;28;21034;-48
2022/05/03 02:50:42;;;;;;;4.95;3.63;;;;;;;9.75;60.72;101934.59;5061908;28;20482;-48
2022/05/03 02:53:22;;;;;;;4.88;4.00;;;;;;;9.81;60.60;101932.34;5058689;28;20020;-48
2022/05/03 02:55:54;;;;;;;5.57;3.92;;;;;;;9.77;60.34;101940.69;5053166;28;20029;-48
2022/05/03 02:58:42;;;;;;;6.10;4.20;;;;;;;9.72;60.66;101937.03;5058500;28;20036;-47
2022/05/03 03:04:34;;;;;;;8.55;4.22;;;;;;;9.64;60.52;101937.53;5058879;28;20048;-47
2022/05/03 03:06:59;;;;;;;5.30;4.13;;;;;;;9.61;60.78;101934.81;5055619;28;20122;-48
2022/05/03 03:09:32;;;;;;;5.80;4.55;;;;;;;9.61;60.87;101933.94;5060397;28;20062;-48
2022/05/03 03:12:38;;;;;;;6.38;4.00;;;;;;;9.68;60.49;101933.44;5059103;28;20500;-49
2022/05/03 03:15:09;;;;;;;6.40;4.10;;;;;;;9.56;60.94;101931.16;5053952;28;20025;-50
2022/05/03 03:17:42;;;;;;;5.72;4.15;;;;;;;9.57;60.46;101930.34;5057318;28;20545;-49
2022/05/03 03:20:12;;;;;;;4.30;3.42;;;;;;;9.50;60.66;101933.41;5057087;28;20140;-49
2022/05/03 03:22:41;;;;;;;6.82;4.00;;;;;;;9.52;60.56;101934.34;5056442;28;20036;-46
2022/05/03 03:25:12;;;;;;;5.35;4.10;;;;;;;9.49;60.51;101930.78;5057292;28;20035;-49
2022/05/03 03:27:39;;;;;;;4.40;3.72;;;;;;;9.42;60.79;101939.88;5060082;28;20081;-48
2022/05/03 03:30:09;;;;;;;6.10;4.30;;;;;;;9.44;61.00;101934.81;5057114;28;20029;-47
2022/05/03 03:32:37;;;;;;;5.63;4.28;;;;;;;9.37;61.58;101938.75;5060221;28;20488;-47
2022/05/03 03:35:03;;;;;;;11.25;6.13;;;;;;;9.32;61.51;101930.81;5059913;28;20036;-49
2022/05/03 03:37:33;;;;;;;7.32;4.80;;;;;;;9.30;61.92;101936.69;5057778;28;20370;-47
2022/05/03 03:39:59;;;;;;;6.30;4.90;;;;;;;9.25;61.90;101930.44;5058901;28;20526;-46
2022/05/03 03:42:27;;;;;;;7.13;4.95;;;;;;;9.18;62.57;101926.69;5060826;28;20060;-50
2022/05/03 03:44:55;;;;;;;7.07;5.22;;;;;;;9.21;62.64;101928.50;5062114;28;20041;-47
2022/05/03 03:47:21;;;;;;;7.50;4.93;;;;;;;9.20;62.73;101924.19;5056638;28;20043;-48
2022/05/03 03:49:46;;;;;;;6.63;4.57;;;;;;;9.18;62.60;101915.53;5059034;28;20028;-47
2022/05/03 03:52:13;;;;;;;8.43;5.20;;;;;;;9.16;62.71;101924.81;5061141;28;20032;-48
2022/05/03 03:54:42;;;;;;;7.82;5.00;;;;;;;9.14;62.75;101919.63;5057741;28;20043;-47
2022/05/03 03:57:08;;;;;;;6.28;4.88;;;;;;;9.19;62.87;101919.88;5055779;28;20051;-48
2022/05/03 03:59:36;;;;;;;6.70;4.82;;;;;;;9.23;62.66;101924.34;5057738;28;20024;-48
2022/05/03 04:02:01;;;;;;;5.88;4.85;;;;;;;9.19;63.02;101917.28;5058471;28;20036;-48
2022/05/03 04:04:33;;;;;;;7.68;5.38;;;;;;;9.22;62.85;101928.59;5057955;28;20044;-46
2022/05/03 04:06:59;;;;;;;6.07;4.70;;;;;;;9.19;62.58;101930.13;5058968;28;20125;-47
2022/05/03 04:09:25;;;;;;;7.35;4.90;;;;;;;9.13;62.85;101923.88;5057016;28;20040;-49
2022/05/03 04:11:50;;;;;;;6.93;5.30;;;;;;;9.12;63.49;101939.19;5058895;28;20381;-46
2022/05/03 04:14:15;;;;;;;9.35;5.40;;;;;;;9.11;63.03;101934.88;5059613;28;20129;-47
2022/05/03 04:16:41;;;;;;;7.63;5.45;;;;;;;9.05;63.65;101924.31;5060112;28;20166;-47
2022/05/03 04:19:07;;;;;;;7.30;4.70;;;;;;;8.97;63.56;101923.88;5059848;28;20028;-48
2022/05/03 04:21:33;;;;;;;8.95;5.30;;;;;;;8.98;63.92;101935.94;5055633;28;20059;-47
2022/05/03 04:23:59;;;;;;;6.05;5.20;;;;;;;9.02;63.75;101932.69;5062092;28;20056;-47
2022/05/03 04:26:24;;;;;;;6.90;5.15;;;;;;;9.03;63.96;101929.31;5056171;28;20044;-47
2022/05/03 04:28:50;;;;;;;8.85;5.32;;;;;;;9.00;64.08;101931.75;5058638;28;20032;-48
2022/05/03 04:31:15;;;;;;;7.20;5.10;;;;;;;8.99;64.56;101932.56;5056709;28;20397;-48
2022/05/03 04:33:41;;;;;;;9.07;5.38;;;;;;;9.00;64.30;101931.75;5057890;28;20504;-46
2022/05/03 04:36:06;;;;;;;7.03;5.53;;;;;;;8.99;64.66;101930.00;5057930;28;20025;-47
2022/05/03 04:38:31;;;;;;;6.30;5.22;;;;;;;8.98;64.44;101927.31;5061873;28;20040;-46
2022/05/03 04:40:59;;;;;;;7.40;5.60;;;;;;;9.00;64.51;101926.63;5061475;28;20117;-47
2022/05/03 04:43:24;;;;;;;9.18;5.65;;;;;;;8.98;64.52;101938.50;5060807;28;20032;-47
2022/05/03 04:45:51;;;;;;;6.32;5.57;;;;;;;8.96;64.98;101937.53;5058933;28;20498;-46
2022/05/03 04:48:16;;;;;;;8.20;5.55;;;;;;;9.02;64.69;101947.22;5060288;28;20068;-48
2022/05/03 04:50:42;;;;;;;8.30;6.03;;;;;;;9.08;64.72;101942.41;5060638;28;20197;-48
2022/05/03 04:53:07;;;;;;;8.73;5.97;;;;;;;9.06;65.04;101951.72;5058534;28;20116;-46
2022/05/03 04:55:32;;;;;;;8.82;6.20;;;;;;;9.03;64.64;101949.84;5057227;28;20068;-45
2022/05/03 04:57:58;;;;;;;7.53;5.97;;;;;;;9.02;64.97;101950.66;5057224;28;20123;-47
2022/05/03 05:00:23;;;;;;;8.05;6.15;;;;;;;9.03;65.52;101949.84;5056095;28;22462;-46
2022/05/03 05:02:49;;;;;;;8.38;6.30;;;;;;;9.03;65.49;101954.09;5053948;28;20035;-45
2022/05/03 05:05:14;;;;;;;7.63;6.35;;;;;;;9.05;65.29;101950.84;5058819;28;20037;-45
2022/05/03 05:07:39;;;;;;;8.60;5.88;;;;;;;9.13;65.17;101949.53;5056055;28;20028;-47
2022/05/03 05:10:24;;;;;;;7.68;6.07;;;;;;;9.15;65.26;101952.16;5053238;28;20044;-48
2022/05/03 05:12:50;;;;;;;7.60;5.80;;;;;;;9.18;65.45;101957.47;5050720;28;20105;-49
2022/05/03 05:15:16;;;;;;;8.07;6.20;;;;;;;9.18;65.35;101957.47;5060607;28;20032;-47
2022/05/03 05:17:42;;;;;;;9.05;6.53;;;;;;;9.21;65.67;101959.31;5055454;28;20028;-47
2022/05/03 05:20:08;;;;;;;7.80;5.85;;;;;;;9.28;65.31;101966.50;5053187;28;20073;-46
2022/05/03 05:22:33;;;;;;;9.43;6.30;;;;;;;9.33;65.62;101968.50;5058027;28;20120;-47
2022/05/03 05:24:59;;;;;;;7.63;6.10;;;;;;;9.43;65.08;101963.84;5054741;28;20036;-53
2022/05/03 05:27:24;;;;;;;11.55;6.43;;;;;;;9.42;65.38;101965.53;5053702;28;20037;-49
2022/05/03 05:29:49;;;;;;;8.40;6.15;;;;;;;9.47;65.16;101969.22;5061852;28;20060;-48
2022/05/03 05:32:15;;;;;;;9.63;6.15;;;;;;;9.49;64.97;101979.56;5057524;28;20029;-48
2022/05/03 05:34:40;;;;;;;10.18;6.20;;;;;;;9.53;64.99;101981.50;5063259;28;20040;-47
2022/05/03 05:37:06;;;;;;;11.18;6.15;;;;;;;9.53;64.64;101972.09;5060315;28;20029;-47
2022/05/03 05:39:32;;;;;;;8.20;6.03;;;;;;;9.63;64.17;101982.00;5063403;28;20384;-46
2022/05/03 05:41:59;;;;;;;8.52;5.97;;;;;;;9.69;63.73;101986.56;5057536;28;20036;-47
2022/05/03 05:44:25;;;;;;;11.13;6.45;;;;;;;9.74;63.74;101981.66;5058178;28;20072;-46
2022/05/03 05:46:52;;;;;;;9.60;6.05;;;;;;;9.82;63.56;101972.63;5058984;28;20033;-47
2022/05/03 05:49:17;;;;;;;8.63;6.47;;;;;;;9.86;63.33;101987.38;5059556;28;20476;-47
2022/05/03 05:51:43;;;;;;;13.60;6.15;;;;;;;9.95;62.61;101977.56;5061569;28;20060;-46
2022/05/03 05:54:09;;;;;;;8.20;6.07;;;;;;;10.05;62.58;101979.75;5059199;28;20498;-49
2022/05/03 05:56:34;;;;;;;9.65;5.97;;;;;;;10.11;62.03;101981.75;5060154;28;20036;-48
2022/05/03 05:58:59;;;;;;;7.22;5.68;;;;;;;10.17;61.33;101979.47;5057636;28;20131;-50
2022/05/03 06:01:26;;;;;;;9.60;6.03;;;;;;;10.30;60.73;101981.84;5058737;28;20043;-48
2022/05/03 06:03:52;;;;;;;14.43;5.72;;;;;;;10.36;60.59;101982.13;5064964;28;20037;-48
2022/05/03 06:06:17;;;;;;;11.38;5.20;;;;;;;10.41;59.41;101975.50;5062374;28;20033;-50
2022/05/03 06:08:43;;;;;;;8.20;5.10;;;;;;;10.42;59.12;101986.66;5059760;28;20040;-49
2022/05/03 06:11:09;;;;;;;8.00;4.75;;;;;;;10.43;59.21;101975.56;5060040;28;20067;-47
2022/05/03 06:13:35;;;;;;;8.52;5.00;;;;;;;10.43;58.03;101981.63;5062572;28;20391;-48
2022/05/03 06:16:11;;;;;;;10.00;5.30;;;;;;;10.58;58.79;101978.84;5058817;28;20039;-46
2022/05/03 06:18:40;;;;;;;9.38;4.97;;;;;;;10.67;58.23;101979.25;5057247;28;20230;-46
2022/05/03 06:21:07;;;;;;;14.43;5.60;;;;;;;10.81;57.57;101981.59;5057071;28;20024;-46
2022/05/03 06:23:33;;;;;;;7.80;5.03;;;;;;;10.97;56.68;101979.75;5059766;28;20132;-46
2022/05/03 06:25:58;;;;;;;8.18;5.20;;;;;;;11.16;56.26;101988.28;5059750;28;20029;-48
2022/05/03 06:28:24;;;;;;;5.63;4.95;;;;;;;11.24;56.30;101987.81;5054378;28;20044;-47
2022/05/03 06:30:50;;;;;;;7.40;5.07;;;;;;;11.40;56.00;101980.72;5057091;28;20028;-46
2022/05/03 06:33:15;;;;;;;8.27;5.25;;;;;;;11.48;54.94;101981.94;5059629;28;20045;-48
2022/05/03 06:35:40;;;;;;;9.30;4.60;;;;;;;11.59;54.29;101982.38;5059625;28;20032;-47
2022/05/03 06:38:06;;;;;;;6.97;4.30;;;;;;;11.71;54.11;101988.03;5064455;28;20062;-48
2022/05/03 06:40:31;;;;;;;5.65;4.60;;;;;;;11.85;54.17;101986.97;5054390;28;20063;-47
2022/05/03 06:42:57;;;;;;;8.05;4.50;;;;;;;12.00;52.72;101989.25;5059744;28;20052;-49
2022/05/03 06:45:22;;;;;;;7.05;4.43;;;;;;;12.14;52.94;101990.72;5060139;28;20033;-49
2022/05/03 06:47:48;;;;;;;6.10;4.25;;;;;;;12.24;52.00;101987.66;5062237;28;20039;-49
2022/05/03 06:50:14;;;;;;;5.32;3.92;;;;;;;12.39;50.84;101997.69;5059885;28;20032;-50
2022/05/03 06:52:40;;;;;;;6.78;3.60;;;;;;;12.55;49.15;101991.41;5073768;28;20067;-51
2022/05/03 06:55:06;;;;;;;4.78;3.50;;;;;;;12.66;49.56;101995.28;5059850;28;20110;-51
2022/05/03 06:57:32;;;;;;;5.70;3.63;;;;;;;12.78;48.59;101994.84;5058937;28;20045;-49
2022/05/03 07:00:01;;;;;;;5.30;3.90;;;;;;;12.89;48.45;101994.44;5059331;28;20028;-48
2022/05/03 07:02:29;;;;;;;4.53;3.72;;;;;;;13.03;48.34;101994.94;5057517;28;20036;-48
2022/05/03 07:04:54;;;;;;;6.25;3.42;;;;;;;13.15;48.22;101990.19;5057254;28;20036;-47
2022/05/03 07:07:20;;;;;;;5.38;3.50;;;;;;;13.25;47.52;101998.31;5055712;28;20037;-50
2022/05/03 07:09:46;;;;;;;8.90;3.78;;;;;;;13.38;47.12;101993.63;5056019;28;20045;-48
2022/05/03 07:12:11;;;;;;;5.97;3.47;;;;;;;13.48;46.21;102001.72;5053413;28;20025;-49
2022/05/03 07:14:36;;;;;;;6.95;3.72;;;;;;;13.59;45.48;101993.50;5060009;28;20024;-47
2022/05/03 07:17:02;;;;;;;4.43;2.88;;;;;;;13.75;42.86;101987.09;5059617;28;20370;-49
2022/05/03 07:24:56;;;;;;;3.55;2.55;;;;;;;14.06;40.81;101988.97;5057665;28;20047;-48
2022/05/03 07:27:21;;;;;;;3.47;2.42;;;;;;;14.21;41.50;101991.19;5055629;28;20028;-49
2022/05/03 07:29:47;;;;;;;3.40;2.65;;;;;;;14.34;41.09;101989.84;5057746;28;20060;-50
2022/05/03 07:32:12;;;;;;;5.43;2.70;;;;;;;14.38;42.41;101995.16;5056627;28;20115;-48
2022/05/03 07:34:38;;;;;;;5.15;3.50;;;;;;;14.48;41.13;101997.22;5056769;28;20024;-48
2022/05/03 07:37:04;;;;;;;4.90;3.00;;;;;;;14.59;40.72;102002.72;5051580;28;20021;-49
2022/05/03 07:39:30;;;;;;;4.78;3.13;;;;;;;14.68;41.74;102000.41;5057817;28;20029;-50
2022/05/03 07:41:57;;;;;;;5.13;3.40;;;;;;;14.62;39.73;101996.75;5058763;28;20035;-48
2022/05/03 07:44:23;;;;;;;4.57;3.08;;;;;;;14.71;39.95;101997.91;5059391;28;20376;-46
2022/05/03 07:46:48;;;;;;;6.95;3.85;;;;;;;14.82;41.26;102006.00;5059366;28;20591;-49
2022/05/03 07:49:14;;;;;;;5.28;3.25;;;;;;;14.88;41.54;102003.56;5063147;28;20064;-50
2022/05/03 07:51:41;;;;;;;12.55;4.07;;;;;;;15.00;40.74;102014.28;5061869;28;20026;-49
2022/05/03 07:54:07;;;;;;;8.65;3.88;;;;;;;15.03;40.66;102008.28;5044153;28;20432;-49
2022/05/03 07:56:33;;;;;;;6.22;3.80;;;;;;;15.09;40.31;102007.59;5059578;28;20040;-51
2022/05/03 07:58:58;;;;;;;5.57;3.65;;;;;;;15.12;40.60;102007.69;5054571;28;20032;-47
2022/05/03 08:01:24;;;;;;;5.75;3.70;;;;;;;15.23;40.79;102007.16;5060605;28;20035;-48
2022/05/03 08:03:49;;;;;;;5.32;3.67;;;;;;;15.29;41.40;102001.25;5062211;28;20476;-47
2022/05/03 08:06:14;;;;;;;6.93;3.78;;;;;;;15.31;40.10;101994.41;5059374;28;20116;-49
2022/05/03 08:08:40;;;;;;;6.43;4.20;;;;;;;15.43;41.64;101999.03;5065187;28;20036;-47
2022/05/03 08:11:05;;;;;;;5.68;3.90;;;;;;;15.51;42.28;102002.69;5062349;28;20063;-51
2022/05/03 08:13:30;;;;;;;7.25;3.90;;;;;;;15.56;40.30;102003.69;5064308;28;20469;-50
2022/05/03 08:15:56;;;;;;;5.63;4.30;;;;;;;15.56;40.33;102001.97;5066695;28;20063;-47
2022/05/03 08:18:22;;;;;;;5.57;4.20;;;;;;;15.63;40.60;102003.03;5065072;28;20115;-49
2022/05/03 08:20:47;;;;;;;7.05;4.47;;;;;;;15.81;41.94;102000.03;5061391;28;20025;-50
2022/05/03 08:23:12;;;;;;;7.53;4.22;;;;;;;15.89;40.98;102003.66;5063554;28;20032;-49
2022/05/03 08:25:38;;;;;;;7.60;4.30;;;;;;;16.00;41.79;102007.41;5064847;28;20500;-50
2022/05/03 08:28:04;;;;;;;6.47;4.30;;;;;;;16.05;40.84;102002.34;5066731;28;20036;-50
2022/05/03 08:30:30;;;;;;;6.72;4.43;;;;;;;16.21;42.29;102009.66;5060605;28;20505;-49
2022/05/03 08:32:55;;;;;;;8.38;5.38;;;;;;;16.24;41.46;102006.22;5065145;28;20120;-50
2022/05/03 08:35:24;;;;;;;7.63;5.00;;;;;;;16.33;41.43;102009.06;5062459;28;20477;-51
2022/05/03 08:43:18;;;;;;;8.10;5.55;;;;;;;16.52;41.79;102012.94;5057690;28;20110;-48
2022/05/03 08:45:48;;;;;;;7.75;5.18;;;;;;;16.59;42.46;102007.03;5064586;28;20460;-50
2022/05/03 08:48:16;;;;;;;9.52;5.63;;;;;;;16.66;41.66;102008.03;5064464;28;20118;-50
2022/05/03 08:50:42;;;;;;;6.25;5.47;;;;;;;16.72;42.50;102005.59;5064441;28;20097;-48
2022/05/03 08:53:10;;;;;;;7.00;5.75;;;;;;;16.79;42.91;102008.34;5064648;28;20489;-48
2022/05/03 08:55:40;;;;;;;8.65;5.90;;;;;;;16.86;42.57;102005.00;5059954;28;20036;-51
2022/05/03 08:58:05;;;;;;;8.68;5.85;;;;;;;16.91;42.76;102004.25;5065839;28;20028;-51
2022/05/03 09:00:32;;;;;;;11.32;6.53;;;;;;;16.92;43.14;101999.06;5059916;28;20032;-49
2022/05/03 09:02:58;;;;;;;7.30;5.90;;;;;;;17.02;43.71;102008.81;5061926;28;20024;-51
2022/05/03 09:05:24;;;;;;;7.18;5.68;;;;;;;17.02;42.40;102005.34;5059014;28;20032;-50
2022/05/03 09:07:59;;;;;;;7.57;5.47;;;;;;;17.15;43.68;102004.72;5062887;28;20029;-50
2022/05/03 09:10:26;;;;;;;8.27;6.05;;;;;;;17.13;42.17;102012.50;5064366;28;20149;-51
2022/05/03 09:12:54;;;;;;;8.95;5.88;;;;;;;17.26;43.56;102003.22;5065553;28;20028;-51
2022/05/03 09:15:33;;;;;;;10.77;5.55;;;;;;;17.38;43.65;102007.75;5062979;28;20392;-49
2022/05/03 09:18:01;;;;;;;12.18;6.15;;;;;;;17.41;43.03;102002.59;5063630;28;20024;-51
2022/05/03 09:26:19;;;;;;;10.32;6.13;;;;;;;17.49;43.18;102006.25;5054898;28;20675;-49
2022/05/03 09:28:52;;;;;;;7.78;5.70;;;;;;;17.57;43.13;102011.56;5056986;28;20032;-48
2022/05/03 09:31:30;;;;;;;7.65;5.75;;;;;;;17.65;43.33;102004.75;5060288;28;20028;-50
2022/05/03 09:33:57;;;;;;;11.05;5.85;;;;;;;17.61;42.51;102006.44;5062592;28;20389;-47
2022/05/03 09:36:23;;;;;;;8.55;5.78;;;;;;;17.63;42.08;101999.53;5062389;28;20085;-51
2022/05/03 09:38:50;;;;;;;6.82;5.30;;;;;;;17.69;42.62;102007.44;5060707;28;20524;-52
2022/05/03 09:41:17;;;;;;;8.40;6.50;;;;;;;17.68;42.67;102000.50;5062574;28;20393;-51
2022/05/03 09:44:02;;;;;;;9.13;5.95;;;;;;;17.77;42.46;102001.53;5064780;28;20047;-51
2022/05/03 09:46:29;;;;;;;7.95;6.05;;;;;;;17.72;42.57;102001.47;5059438;28;20621;-50
2022/05/03 09:48:55;;;;;;;8.90;5.80;;;;;;;17.91;43.09;102000.03;5062974;28;20048;-49
2022/05/03 09:51:22;;;;;;;9.35;5.97;;;;;;;18.01;43.11;102001.91;5059958;28;21179;-48
2022/05/03 09:54:00;;;;;;;8.90;6.30;;;;;;;18.17;43.59;102003.03;5060814;28;20771;-50
2022/05/03 09:56:27;;;;;;;8.10;6.40;;;;;;;18.23;42.52;102004.00;5060905;28;20040;-52
2022/05/03 09:59:06;;;;;;;8.68;5.90;;;;;;;18.32;42.68;102002.38;5055943;28;20029;-48
2022/05/03 10:01:33;;;;;;;;;;;;;;;18.44;42.44;101993.03;5063839;28;20036;-52
2022/05/03 10:03:58;;;;;;;8.93;5.40;;;;;;;18.41;41.61;101994.72;5065804;28;19919;-50
2022/05/03 10:06:26;;;;;;;10.90;6.25;;;;;;;18.50;42.02;102007.84;5065452;28;20447;-50
2022/05/03 10:08:53;;;;;;;8.20;5.50;;;;;;;18.58;42.78;101994.94;5060814;28;20047;-51
2022/05/03 10:11:18;;;;;;;7.68;6.20;;;;;;;18.63;40.88;101999.34;5058422;28;20107;-51
2022/05/03 10:13:45;;;;;;;9.15;5.40;;;;;;;18.67;41.34;101995.94;5062148;28;20032;-50
2022/05/03 10:21:48;;;;;;;;;;;;;;;19.14;42.05;101993.03;5060989;28;20044;-51
2022/05/03 10:24:14;;;;;;;10.07;5.32;;;;;;;19.13;41.44;101988.69;5061987;28;20002;-49
2022/05/03 10:27:01;;;;;;;5.32;4.40;;;;;;;19.25;41.00;101986.19;5062588;28;20029;-52
2022/05/03 10:29:32;;;;;;;7.88;5.50;;;;;;;19.08;40.97;101985.16;5061646;28;20043;-51
2022/05/03 10:32:07;;;;;;;8.10;6.13;;;;;;;19.18;41.43;101978.31;5058051;28;20032;-48
2022/05/03 10:34:48;;;;;;;8.60;6.07;;;;;;;19.36;41.59;101975.00;5064212;28;20063;-52
2022/05/03 10:37:19;;;;;;;10.25;6.85;;;;;;;19.48;40.45;101970.78;5064248;28;20071;-50
2022/05/03 10:39:57;;;;;;;7.22;5.85;;;;;;;19.61;40.26;101979.63;5060249;28;20029;-51
2022/05/03 10:42:30;;;;;;;5.20;4.45;;;;;;;19.43;39.26;101974.19;5060405;28;20131;-51
2022/05/03 10:44:58;;;;;;;7.32;5.90;;;;;;;19.43;40.22;101969.00;5063457;28;20397;-52
2022/05/03 10:47:48;;;;;;;8.27;5.32;;;;;;;19.54;40.87;101969.97;5063234;28;20021;-52
2022/05/03 10:50:16;;;;;;;4.78;4.05;;;;;;;19.35;40.08;101973.22;5056834;28;20041;-52
2022/05/03 10:52:54;;;;;;;7.35;5.13;;;;;;;19.29;40.86;101976.66;5060219;28;20032;-50
2022/05/03 10:55:20;;;;;;;7.78;6.18;;;;;;;19.10;40.83;101974.72;5058377;28;20401;-52
2022/05/03 10:58:23;;;;;;;9.65;6.50;;;;;;;19.03;41.64;101973.78;5064663;28;20504;-52
2022/05/03 11:01:14;;;;;;;7.43;5.60;;;;;;;18.88;41.51;101966.69;5056793;28;20036;-53
2022/05/03 11:03:52;;;;;;;6.20;5.43;;;;;;;19.21;41.55;101967.91;5061161;28;20020;-51
2022/05/03 11:06:21;;;;;;;8.18;5.90;;;;;;;19.47;41.67;101955.09;5061477;28;20032;-52
2022/05/03 11:09:05;;;;;;;8.75;6.57;;;;;;;19.79;41.30;101952.78;5061513;28;20805;-52
2022/05/03 11:11:47;;;;;;;8.57;5.82;;;;;;;19.99;40.04;101953.78;5059238;28;20120;-51
2022/05/03 11:14:24;;;;;;;7.28;5.50;;;;;;;20.04;39.89;101952.09;5060806;28;20055;-52
2022/05/03 11:17:01;;;;;;;7.88;6.45;;;;;;;19.94;40.38;101949.41;5061757;28;20451;-52
2022/05/03 11:19:27;;;;;;;8.98;6.20;;;;;;;19.51;39.77;101949.03;5062646;28;20013;-53
2022/05/03 11:21:52;;;;;;;9.68;6.15;;;;;;;19.57;40.57;101946.50;5062368;28;20392;-49
2022/05/03 11:24:29;;;;;;;7.45;5.88;;;;;;;19.83;40.25;101934.53;5059632;28;21329;-51
2022/05/03 11:27:00;;;;;;;8.82;6.50;;;;;;;19.94;39.98;101941.56;5059541;28;20439;-51
2022/05/03 11:29:30;;;;;;;13.82;6.53;;;;;;;19.90;40.94;101940.69;5062124;28;20601;-52
2022/05/03 11:31:58;;;;;;;10.20;5.70;;;;;;;19.67;40.61;101940.53;5057192;28;20437;-53
2022/05/03 11:34:24;;;;;;;10.00;6.10;;;;;;;19.56;40.55;101942.13;5059829;28;20366;-53
2022/05/03 11:36:52;;;;;;;7.03;5.75;;;;;;;19.63;40.51;101933.53;5061021;28;20031;-52
2022/05/03 11:39:18;;;;;;;8.23;5.80;;;;;;;19.64;40.31;101939.63;5060843;28;20430;-52
2022/05/03 11:41:45;;;;;;;9.05;6.20;;;;;;;19.51;41.07;101930.78;5060570;28;20448;-52
2022/05/03 11:44:11;;;;;;;9.38;5.70;;;;;;;19.49;41.69;101933.38;5058683;28;20956;-53
2022/05/03 11:46:38;;;;;;;7.35;5.00;;;;;;;19.35;40.61;101932.38;5055984;28;20028;-51
2022/05/03 11:49:05;;;;;;;10.25;5.82;;;;;;;19.36;40.44;101922.84;5058399;28;20029;-50
2022/05/03 11:57:24;;;;;;;6.70;4.63;;;;;;;19.55;40.91;101909.09;5058197;28;20098;-52
2022/05/03 11:59:51;;;;;;;6.32;4.13;;;;;;;19.35;40.88;101906.28;5062216;28;20029;-50
2022/05/03 12:02:19;;;;;;;5.10;3.92;;;;;;;19.31;40.74;101901.94;5057227;28;20537;-51
2022/05/03 12:05:12;;;;;;;5.55;4.55;;;;;;;19.32;41.24;101914.13;5061264;28;20111;-52
2022/05/03 12:07:37;;;;;;;6.93;5.97;;;;;;;19.11;41.75;101903.47;5052394;28;20044;-53
2022/05/03 12:10:29;;;;;;;8.90;6.10;;;;;;;19.09;42.14;101902.59;5062056;28;20436;-52
2022/05/03 12:13:12;;;;;;;8.20;6.35;;;;;;;19.02;43.09;101909.47;5059305;28;20048;-52
2022/05/03 12:15:47;;;;;;;11.73;7.55;;;;;;;18.92;43.76;101900.69;5059428;28;20031;-51
2022/05/03 12:18:18;;;;;;;13.57;8.65;;;;;;;18.84;44.59;101901.47;5060473;28;20036;-52
2022/05/03 12:20:48;;;;;;;14.07;8.15;;;;;;;18.81;44.67;101909.25;5061040;28;20025;-51